createdAt,value
2022-11-21T00:00:53.338Z,95.32
2022-11-21T00:01:53.379Z,95.74
2022-11-21T00:02:53.320Z,96.15
2022-11-21T00:03:53.301Z,96.05
2022-11-21T00:04:53.277Z,95.95
2022-11-21T00:05:53.280Z,95.95
2022-11-21T00:06:53.285Z,95.95
2022-11-21T00:07:53.321Z,95.80
2022-11-21T00:08:53.247Z,95.43
2022-11-21T00:09:53.226Z,95.70
2022-11-21T00:10:53.230Z,95.39
2022-11-21T00:11:53.210Z,95.75
2022-11-21T00:12:53.210Z,95.44
2022-11-21T00:13:53.235Z,96.17
2022-11-21T00:14:53.226Z,95.44
2022-11-21T00:15:53.206Z,95.75
2022-11-21T00:16:57.191Z,95.54
2022-11-21T00:17:54.167Z,96.48
2022-11-21T00:18:53.151Z,96.37
2022-11-21T00:19:53.127Z,96.37
2022-11-21T00:20:53.132Z,95.54
2022-11-21T00:21:53.150Z,95.54
2022-11-21T00:22:53.111Z,95.81
2022-11-21T00:23:53.094Z,95.54
2022-11-21T00:24:54.435Z,94.98
2022-11-21T00:25:53.086Z,95.34
2022-11-21T00:26:53.078Z,94.98
2022-11-21T00:27:53.070Z,95.19
2022-11-21T00:28:53.074Z,95.09
2022-11-21T00:29:53.062Z,95.40
2022-11-21T00:30:53.019Z,95.09
2022-11-21T00:31:53.052Z,95.50
2022-11-21T00:32:53.006Z,95.65
2022-11-21T00:33:53.025Z,95.54
2022-11-21T00:34:53.008Z,94.93
2022-11-21T00:35:52.987Z,95.75
2022-11-21T00:36:52.966Z,95.65
2022-11-21T00:37:52.998Z,95.61
2022-11-21T00:38:52.958Z,95.03
2022-11-21T00:39:52.957Z,95.44
2022-11-21T00:40:53.926Z,95.44
2022-11-21T00:41:52.942Z,95.71
2022-11-21T00:42:52.996Z,95.61
2022-11-21T00:43:52.928Z,95.19
2022-11-21T00:44:52.891Z,95.71
2022-11-21T00:45:52.899Z,95.71
2022-11-21T00:46:52.880Z,95.71
2022-11-21T00:47:52.862Z,95.29
2022-11-21T00:48:52.880Z,95.40
2022-11-21T00:49:52.855Z,95.40
2022-11-21T00:50:52.834Z,95.29
2022-11-21T00:51:52.833Z,95.61
2022-11-21T00:52:52.829Z,95.71
2022-11-21T00:53:52.847Z,95.81
2022-11-21T00:54:52.805Z,95.50
2022-11-21T00:55:52.790Z,95.71
2022-11-21T00:56:52.790Z,95.92
2022-11-21T00:57:52.774Z,95.19
2022-11-21T00:58:52.778Z,95.81
2022-11-21T00:59:52.766Z,95.36
2022-11-21T01:00:52.822Z,95.56
2022-11-21T01:01:52.736Z,95.56
2022-11-21T01:02:52.713Z,95.67
2022-11-21T01:03:52.749Z,95.67
2022-11-21T01:04:52.704Z,95.87
2022-11-21T01:05:52.715Z,94.73
2022-11-21T01:06:52.697Z,95.67
2022-11-21T01:07:52.709Z,95.67
2022-11-21T01:08:52.670Z,95.56
2022-11-21T01:09:52.691Z,95.46
2022-11-21T01:10:52.686Z,95.77
2022-11-21T01:11:52.677Z,95.67
2022-11-21T01:12:52.636Z,95.77
2022-11-21T01:13:52.666Z,95.87
2022-11-21T01:14:52.628Z,95.46
2022-11-21T01:15:52.637Z,95.67
2022-11-21T01:16:52.650Z,95.52
2022-11-21T01:17:52.594Z,95.87
2022-11-21T01:18:52.603Z,95.56
2022-11-21T01:19:52.598Z,95.62
2022-11-21T01:20:52.563Z,94.90
2022-11-21T01:21:52.548Z,95.73
2022-11-21T01:22:52.565Z,95.52
2022-11-21T01:23:52.506Z,94.69
2022-11-21T01:24:52.549Z,94.28
2022-11-21T01:25:52.511Z,94.69
2022-11-21T01:26:52.507Z,94.69
2022-11-21T01:27:52.601Z,94.69
2022-11-21T01:28:52.482Z,94.13
2022-11-21T01:29:52.479Z,94.18
2022-11-21T01:30:52.475Z,95.00
2022-11-21T01:31:52.453Z,94.69
2022-11-21T01:32:52.442Z,94.28
2022-11-21T01:33:52.441Z,94.48
2022-11-21T01:34:52.419Z,94.69
2022-11-21T01:35:52.436Z,95.10
2022-11-21T01:36:52.401Z,94.48
2022-11-21T01:37:52.423Z,94.38
2022-11-21T01:38:52.379Z,94.59
2022-11-21T01:39:52.361Z,94.18
2022-11-21T01:40:52.349Z,94.18
2022-11-21T01:41:52.415Z,94.38
2022-11-21T01:42:52.356Z,95.00
2022-11-21T01:43:52.330Z,94.28
2022-11-21T01:44:52.338Z,94.69
2022-11-21T01:45:52.309Z,94.79
2022-11-21T01:46:52.359Z,95.21
2022-11-21T01:47:52.306Z,95.21
2022-11-21T01:48:52.301Z,94.90
2022-11-21T01:49:52.271Z,94.90
2022-11-21T01:50:52.295Z,94.90
2022-11-21T01:51:52.304Z,94.38
2022-11-21T01:52:52.285Z,94.59
2022-11-21T01:53:52.239Z,94.48
2022-11-21T01:54:52.244Z,94.18
2022-11-21T01:55:52.217Z,95.00
2022-11-21T01:56:52.248Z,95.21
2022-11-21T01:57:52.250Z,94.28
2022-11-21T01:58:52.178Z,94.38
2022-11-21T01:59:52.187Z,94.07
2022-11-21T02:00:52.286Z,94.03
2022-11-21T02:01:52.159Z,93.76
2022-11-21T02:02:52.195Z,93.72
2022-11-21T02:03:52.164Z,93.82
2022-11-21T02:04:52.127Z,93.62
2022-11-21T02:05:52.128Z,93.51
2022-11-21T02:06:52.117Z,93.41
2022-11-21T02:07:52.127Z,93.41
2022-11-21T02:08:52.079Z,93.72
2022-11-21T02:09:53.107Z,93.82
2022-11-21T02:10:52.090Z,93.41
2022-11-21T02:11:52.109Z,93.62
2022-11-21T02:12:52.061Z,93.37
2022-11-21T02:13:52.074Z,93.16
2022-11-21T02:14:52.043Z,92.64
2022-11-21T02:15:52.067Z,92.79
2022-11-21T02:16:52.016Z,92.64
2022-11-21T02:17:51.996Z,92.85
2022-11-21T02:18:52.065Z,92.74
2022-11-21T02:19:52.024Z,92.54
2022-11-21T02:20:52.967Z,92.44
2022-11-21T02:21:51.966Z,92.23
2022-11-21T02:22:51.964Z,92.13
2022-11-21T02:23:54.295Z,92.02
2022-11-21T02:24:52.974Z,92.13
2022-11-21T02:25:51.920Z,91.71
2022-11-21T02:26:51.925Z,91.82
2022-11-21T02:27:51.903Z,91.92
2022-11-21T02:28:51.869Z,92.23
2022-11-21T02:29:51.895Z,92.02
2022-11-21T02:30:51.891Z,92.02
2022-11-21T02:31:51.875Z,92.17
2022-11-21T02:32:51.877Z,92.07
2022-11-21T02:33:51.846Z,91.65
2022-11-21T02:34:51.818Z,91.75
2022-11-21T02:35:51.845Z,92.52
2022-11-21T02:36:51.830Z,92.79
2022-11-21T02:37:51.806Z,92.58
2022-11-21T02:38:51.821Z,92.27
2022-11-21T02:39:51.811Z,91.69
2022-11-21T02:40:51.765Z,91.86
2022-11-21T02:41:51.767Z,91.44
2022-11-21T02:42:52.928Z,91.75
2022-11-21T02:43:52.768Z,91.86
2022-11-21T02:44:51.724Z,91.03
2022-11-21T02:45:51.717Z,90.77
2022-11-21T02:46:51.729Z,90.25
2022-11-21T02:47:51.725Z,90.39
2022-11-21T02:48:51.685Z,91.53
2022-11-21T02:49:51.695Z,91.28
2022-11-21T02:50:51.698Z,91.28
2022-11-21T02:51:51.662Z,91.38
2022-11-21T02:52:51.664Z,90.97
2022-11-21T02:53:51.662Z,90.56
2022-11-21T02:54:51.657Z,90.60
2022-11-21T02:55:51.631Z,90.50
2022-11-21T02:56:51.639Z,90.45
2022-11-21T02:57:51.613Z,90.45
2022-11-21T02:58:51.625Z,90.35
2022-11-21T02:59:51.592Z,90.39
2022-11-21T03:00:51.683Z,91.01
2022-11-21T03:01:51.580Z,91.42
2022-11-21T03:02:51.580Z,90.91
2022-11-21T03:04:23.384Z,90.60
2022-11-21T03:04:51.491Z,90.08
2022-11-21T03:05:51.480Z,90.29
2022-11-21T03:06:51.463Z,89.98
2022-11-21T03:07:51.485Z,90.08
2022-11-21T03:08:51.448Z,89.98
2022-11-21T03:09:51.435Z,89.98
2022-11-21T03:10:51.428Z,89.92
2022-11-21T03:11:51.423Z,89.61
2022-11-21T03:12:51.426Z,89.71
2022-11-21T03:13:51.390Z,89.92
2022-11-21T03:14:51.383Z,90.29
2022-11-21T03:15:51.372Z,90.29
2022-11-21T03:16:51.365Z,90.02
2022-11-21T03:17:51.354Z,89.81
2022-11-21T03:18:51.361Z,90.12
2022-11-21T03:19:51.344Z,90.02
2022-11-21T03:20:51.331Z,89.15
2022-11-21T03:21:51.314Z,89.50
2022-11-21T03:22:51.312Z,90.33
2022-11-21T03:23:51.330Z,89.81
2022-11-21T03:24:51.290Z,90.12
2022-11-21T03:25:51.286Z,89.46
2022-11-21T03:26:51.279Z,89.92
2022-11-21T03:27:51.261Z,88.88
2022-11-21T03:28:51.247Z,88.98
2022-11-21T03:29:51.263Z,89.09
2022-11-21T03:30:51.236Z,89.50
2022-11-21T03:31:51.233Z,89.50
2022-11-21T03:32:51.222Z,89.50
2022-11-21T03:33:51.200Z,89.71
2022-11-21T03:34:51.214Z,90.64
2022-11-21T03:35:52.188Z,89.50
2022-11-21T03:36:51.173Z,89.81
2022-11-21T03:37:51.174Z,90.53
2022-11-21T03:38:51.159Z,89.50
2022-11-21T03:39:51.179Z,89.61
2022-11-21T03:40:51.143Z,89.19
2022-11-21T03:41:51.187Z,89.50
2022-11-21T03:42:51.137Z,88.98
2022-11-21T03:43:51.127Z,88.67
2022-11-21T03:44:51.114Z,89.65
2022-11-21T03:45:51.121Z,89.40
2022-11-21T03:46:51.092Z,89.29
2022-11-21T03:47:51.075Z,89.44
2022-11-21T03:48:51.066Z,88.51
2022-11-21T03:49:51.052Z,88.20
2022-11-21T03:50:51.060Z,89.03
2022-11-21T03:51:51.042Z,90.06
2022-11-21T03:52:51.028Z,89.86
2022-11-21T03:53:51.018Z,89.34
2022-11-21T03:54:51.003Z,90.06
2022-11-21T03:55:51.011Z,89.23
2022-11-21T03:56:51.006Z,89.34
2022-11-21T03:57:50.997Z,89.65
2022-11-21T03:58:50.975Z,90.06
2022-11-21T03:59:50.992Z,89.03
2022-11-21T04:00:50.957Z,89.07
2022-11-21T04:01:51.003Z,88.86
2022-11-21T04:02:50.941Z,88.86
2022-11-21T04:03:50.918Z,89.17
2022-11-21T04:04:50.913Z,89.48
2022-11-21T04:05:50.897Z,89.44
2022-11-21T04:06:50.914Z,89.13
2022-11-21T04:07:50.885Z,89.03
2022-11-21T04:08:50.875Z,88.92
2022-11-21T04:09:50.885Z,88.20
2022-11-21T04:10:50.844Z,88.30
2022-11-21T04:11:50.835Z,87.93
2022-11-21T04:12:50.832Z,88.76
2022-11-21T04:13:50.824Z,88.45
2022-11-21T04:14:50.824Z,88.45
2022-11-21T04:15:50.811Z,88.76
2022-11-21T04:16:50.787Z,88.76
2022-11-21T04:17:50.791Z,88.65
2022-11-21T04:18:50.793Z,88.24
2022-11-21T04:19:50.790Z,88.24
2022-11-21T04:20:50.757Z,88.96
2022-11-21T04:21:50.754Z,88.34
2022-11-21T04:22:50.728Z,88.45
2022-11-21T04:23:50.711Z,88.65
2022-11-21T04:24:50.699Z,88.34
2022-11-21T04:25:50.699Z,88.45
2022-11-21T04:26:50.712Z,88.90
2022-11-21T04:27:50.694Z,89.31
2022-11-21T04:28:50.671Z,89.69
2022-11-21T04:29:50.664Z,89.28
2022-11-21T04:30:54.465Z,89.07
2022-11-21T04:31:50.644Z,88.76
2022-11-21T04:32:50.656Z,88.96
2022-11-21T04:33:50.627Z,88.86
2022-11-21T04:34:50.610Z,88.71
2022-11-21T04:35:50.609Z,88.40
2022-11-21T04:36:50.641Z,88.30
2022-11-21T04:37:50.592Z,88.20
2022-11-21T04:38:50.609Z,88.09
2022-11-21T04:39:50.559Z,87.78
2022-11-21T04:40:50.562Z,87.99
2022-11-21T04:41:50.540Z,88.09
2022-11-21T04:42:50.536Z,88.09
2022-11-21T04:43:50.546Z,87.78
2022-11-21T04:44:50.521Z,87.72
2022-11-21T04:45:50.509Z,87.82
2022-11-21T04:46:50.497Z,87.99
2022-11-21T04:47:50.485Z,88.13
2022-11-21T04:48:50.476Z,88.13
2022-11-21T04:49:50.478Z,88.76
2022-11-21T04:50:50.463Z,88.59
2022-11-21T04:51:50.444Z,89.00
2022-11-21T04:52:50.453Z,89.73
2022-11-21T04:53:50.420Z,89.62
2022-11-21T04:54:50.441Z,90.35
2022-11-21T04:55:50.422Z,90.25
2022-11-21T04:56:50.415Z,90.19
2022-11-21T04:57:50.396Z,90.29
2022-11-21T04:58:50.391Z,91.02
2022-11-21T04:59:50.370Z,90.91
2022-11-21T05:00:50.428Z,91.33
2022-11-21T05:01:50.401Z,91.33
2022-11-21T05:02:50.337Z,91.53
2022-11-21T05:03:50.327Z,91.58
2022-11-21T05:04:50.337Z,92.05
2022-11-21T05:05:50.305Z,92.10
2022-11-21T05:06:50.317Z,92.30
2022-11-21T05:07:50.285Z,92.57
2022-11-21T05:08:53.457Z,92.51
2022-11-21T05:09:51.260Z,93.02
2022-11-21T05:10:50.278Z,92.93
2022-11-21T05:11:50.245Z,92.72
2022-11-21T05:12:50.255Z,92.93
2022-11-21T05:13:50.232Z,92.45
2022-11-21T05:14:50.218Z,92.14
2022-11-21T05:15:50.213Z,92.07
2022-11-21T05:16:50.207Z,92.49
2022-11-21T05:17:50.253Z,92.38
2022-11-21T05:18:50.195Z,92.69
2022-11-21T05:19:50.172Z,92.80
2022-11-21T05:20:50.163Z,92.80
2022-11-21T05:21:50.156Z,92.94
2022-11-21T05:22:50.144Z,93.26
2022-11-21T05:23:50.145Z,92.68
2022-11-21T05:24:50.131Z,92.74
2022-11-21T05:25:50.132Z,92.78
2022-11-21T05:26:50.128Z,93.41
2022-11-21T05:27:50.101Z,93.62
2022-11-21T05:28:50.133Z,93.41
2022-11-21T05:29:50.095Z,93.82
2022-11-21T05:30:50.070Z,93.66
2022-11-21T05:31:50.067Z,93.82
2022-11-21T05:32:50.049Z,93.76
2022-11-21T05:33:50.065Z,93.97
2022-11-21T05:34:50.028Z,93.76
2022-11-21T05:35:50.021Z,93.76
2022-11-21T05:36:50.016Z,93.76
2022-11-21T05:37:49.997Z,94.07
2022-11-21T05:38:49.989Z,94.07
2022-11-21T05:39:49.994Z,93.82
2022-11-21T05:40:49.975Z,93.87
2022-11-21T05:41:49.971Z,93.82
2022-11-21T05:42:49.951Z,93.51
2022-11-21T05:43:49.956Z,93.10
2022-11-21T05:44:49.946Z,92.99
2022-11-21T05:45:49.919Z,92.68
2022-11-21T05:46:49.912Z,92.88
2022-11-21T05:47:49.921Z,93.16
2022-11-21T05:48:49.917Z,92.68
2022-11-21T05:49:49.886Z,92.36
2022-11-21T05:50:49.897Z,92.11
2022-11-21T05:51:49.873Z,92.01
2022-11-21T05:52:49.859Z,92.16
2022-11-21T05:53:49.853Z,92.16
2022-11-21T05:54:49.849Z,92.47
2022-11-21T05:55:49.827Z,92.26
2022-11-21T05:56:49.837Z,92.01
2022-11-21T05:57:49.807Z,91.91
2022-11-21T05:58:49.823Z,92.22
2022-11-21T05:59:49.799Z,91.80
2022-11-21T06:00:49.780Z,91.60
2022-11-21T06:01:49.782Z,91.70
2022-11-21T06:02:49.811Z,91.35
2022-11-21T06:03:49.809Z,90.87
2022-11-21T06:04:49.743Z,91.60
2022-11-21T06:05:49.731Z,90.87
2022-11-21T06:06:49.720Z,91.39
2022-11-21T06:07:49.709Z,91.70
2022-11-21T06:08:49.723Z,91.91
2022-11-21T06:09:49.691Z,91.85
2022-11-21T06:10:49.685Z,91.53
2022-11-21T06:11:49.708Z,91.74
2022-11-21T06:12:49.657Z,91.91
2022-11-21T06:13:49.654Z,91.60
2022-11-21T06:14:49.642Z,91.49
2022-11-21T06:15:49.633Z,91.60
2022-11-21T06:16:49.641Z,91.08
2022-11-21T06:17:49.622Z,91.60
2022-11-21T06:18:50.800Z,91.91
2022-11-21T06:19:49.598Z,91.39
2022-11-21T06:20:49.610Z,91.74
2022-11-21T06:21:49.597Z,92.16
2022-11-21T06:22:49.596Z,91.95
2022-11-21T06:23:49.552Z,91.33
2022-11-21T06:24:49.546Z,92.16
2022-11-21T06:25:49.575Z,92.16
2022-11-21T06:26:49.523Z,91.95
2022-11-21T06:27:49.531Z,91.74
2022-11-21T06:28:49.502Z,92.16
2022-11-21T06:29:49.503Z,91.74
2022-11-21T06:30:49.518Z,91.53
2022-11-21T06:31:49.480Z,92.16
2022-11-21T06:32:49.515Z,92.05
2022-11-21T06:33:49.462Z,92.01
2022-11-21T06:34:49.447Z,91.60
2022-11-21T06:35:49.453Z,91.18
2022-11-21T06:36:49.445Z,90.97
2022-11-21T06:37:53.340Z,91.39
2022-11-21T06:38:50.404Z,91.80
2022-11-21T06:39:49.396Z,91.53
2022-11-21T06:40:49.380Z,91.64
2022-11-21T06:41:49.399Z,91.95
2022-11-21T06:42:49.373Z,91.74
2022-11-21T06:43:49.376Z,91.85
2022-11-21T06:44:49.347Z,92.05
2022-11-21T06:45:49.371Z,92.16
2022-11-21T06:46:51.512Z,92.16
2022-11-21T06:47:50.316Z,91.78
2022-11-21T06:48:49.315Z,92.05
2022-11-21T06:49:49.296Z,92.05
2022-11-21T06:50:49.305Z,91.99
2022-11-21T06:51:49.341Z,92.05
2022-11-21T06:52:49.266Z,91.95
2022-11-21T06:53:49.283Z,91.74
2022-11-21T06:54:49.248Z,91.43
2022-11-21T06:55:49.254Z,91.95
2022-11-21T06:56:49.231Z,92.26
2022-11-21T06:57:49.225Z,91.74
2022-11-21T06:58:49.217Z,91.85
2022-11-21T06:59:49.202Z,91.85
2022-11-21T07:00:49.213Z,92.05
2022-11-21T07:01:49.247Z,91.95
2022-11-21T07:02:49.171Z,91.74
2022-11-21T07:03:49.161Z,92.16
2022-11-21T07:04:49.152Z,91.91
2022-11-21T07:05:49.141Z,91.49
2022-11-21T07:06:49.152Z,91.08
2022-11-21T07:07:49.126Z,90.83
2022-11-21T07:09:00.070Z,90.93
2022-11-21T07:09:51.327Z,90.93
2022-11-21T07:11:17.727Z,90.31
2022-11-21T07:11:49.092Z,90.31
2022-11-21T07:12:49.086Z,90.20
2022-11-21T07:13:49.086Z,89.69
2022-11-21T07:14:49.067Z,89.96
2022-11-21T07:15:49.065Z,89.54
2022-11-21T07:16:49.072Z,89.79
2022-11-21T07:17:49.036Z,90.10
2022-11-21T07:18:49.013Z,90.27
2022-11-21T07:19:49.006Z,90.58
2022-11-21T07:20:49.000Z,90.62
2022-11-21T07:21:48.985Z,90.79
2022-11-21T07:22:49.001Z,90.69
2022-11-21T07:23:48.980Z,90.17
2022-11-21T07:24:48.977Z,89.96
2022-11-21T07:25:48.963Z,90.12
2022-11-21T07:26:48.937Z,90.79
2022-11-21T07:27:48.926Z,89.71
2022-11-21T07:28:48.914Z,89.71
2022-11-21T07:29:48.949Z,89.92
2022-11-21T07:30:48.896Z,89.54
2022-11-21T07:31:48.888Z,89.81
2022-11-21T07:32:48.883Z,89.71
2022-11-21T07:33:48.881Z,89.71
2022-11-21T07:34:48.894Z,89.29
2022-11-21T07:35:48.835Z,89.19
2022-11-21T07:36:48.836Z,88.88
2022-11-21T07:37:48.818Z,88.78
2022-11-21T07:38:48.807Z,88.67
2022-11-21T07:39:48.821Z,89.04
2022-11-21T07:40:48.801Z,88.94
2022-11-21T07:41:48.804Z,88.53
2022-11-21T07:42:48.788Z,88.42
2022-11-21T07:43:48.770Z,88.53
2022-11-21T07:44:48.760Z,88.32
2022-11-21T07:45:48.752Z,88.42
2022-11-21T07:46:48.750Z,88.53
2022-11-21T07:47:48.729Z,88.21
2022-11-21T07:48:48.723Z,88.11
2022-11-21T07:49:48.709Z,87.97
2022-11-21T07:50:48.724Z,88.01
2022-11-21T07:51:48.711Z,88.57
2022-11-21T07:52:48.688Z,88.73
2022-11-21T07:53:48.672Z,88.63
2022-11-21T07:54:48.662Z,88.98
2022-11-21T07:55:48.697Z,88.98
2022-11-21T07:56:48.669Z,88.98
2022-11-21T07:57:48.640Z,89.86
2022-11-21T07:58:48.638Z,89.81
2022-11-21T07:59:48.619Z,89.96
2022-11-21T08:00:48.605Z,90.12
2022-11-21T08:01:48.599Z,89.81
2022-11-21T08:02:48.589Z,90.02
2022-11-21T08:03:48.602Z,89.92
2022-11-21T08:04:48.576Z,89.87
2022-11-21T08:05:48.630Z,89.87
2022-11-21T08:06:48.550Z,89.46
2022-11-21T08:07:48.530Z,89.46
2022-11-21T08:08:48.548Z,89.77
2022-11-21T08:09:48.525Z,88.53
2022-11-21T08:10:48.531Z,88.32
2022-11-21T08:11:48.526Z,88.53
2022-11-21T08:12:48.495Z,88.98
2022-11-21T08:13:48.481Z,89.09
2022-11-21T08:14:48.487Z,89.19
2022-11-21T08:15:48.486Z,89.61
2022-11-21T08:16:48.464Z,90.29
2022-11-21T08:17:48.458Z,90.44
2022-11-21T08:18:48.427Z,90.12
2022-11-21T08:19:48.434Z,90.54
2022-11-21T08:20:48.432Z,90.54
2022-11-21T08:21:48.413Z,90.89
2022-11-21T08:22:48.394Z,90.54
2022-11-21T08:23:48.477Z,90.44
2022-11-21T08:24:48.385Z,90.75
2022-11-21T08:25:48.379Z,90.44
2022-11-21T08:26:48.353Z,90.64
2022-11-21T08:27:48.364Z,91.02
2022-11-21T08:28:48.337Z,91.16
2022-11-21T08:29:48.326Z,90.44
2022-11-21T08:30:48.330Z,90.44
2022-11-21T08:31:48.312Z,89.98
2022-11-21T08:32:48.318Z,89.98
2022-11-21T08:33:48.291Z,89.98
2022-11-21T08:34:48.275Z,90.25
2022-11-21T08:35:48.294Z,90.50
2022-11-21T08:36:48.267Z,89.87
2022-11-21T08:37:48.257Z,90.08
2022-11-21T08:38:48.235Z,89.98
2022-11-21T08:39:48.231Z,90.50
2022-11-21T08:40:48.225Z,90.50
2022-11-21T08:41:48.204Z,90.50
2022-11-21T08:42:48.195Z,89.98
2022-11-21T08:43:48.206Z,89.56
2022-11-21T08:44:48.169Z,89.56
2022-11-21T08:45:48.178Z,90.29
2022-11-21T08:46:48.163Z,90.29
2022-11-21T08:47:48.138Z,90.50
2022-11-21T08:48:48.138Z,90.39
2022-11-21T08:49:48.151Z,90.50
2022-11-21T08:50:48.144Z,90.70
2022-11-21T08:51:48.096Z,90.08
2022-11-21T08:52:48.108Z,89.87
2022-11-21T08:53:48.101Z,90.08
2022-11-21T08:54:48.083Z,89.56
2022-11-21T08:55:48.079Z,90.08
2022-11-21T08:56:48.073Z,89.77
2022-11-21T08:57:48.042Z,89.87
2022-11-21T08:58:48.037Z,89.67
2022-11-21T08:59:48.033Z,89.56
2022-11-21T09:00:48.031Z,89.98
2022-11-21T09:01:48.030Z,90.08
2022-11-21T09:02:47.998Z,89.87
2022-11-21T09:03:48.017Z,89.15
2022-11-21T09:05:19.903Z,89.67
2022-11-21T09:05:48.013Z,89.25
2022-11-21T09:06:48.161Z,89.62
2022-11-21T09:07:48.049Z,89.31
2022-11-21T09:08:48.065Z,88.69
2022-11-21T09:09:47.965Z,88.69
2022-11-21T09:10:47.966Z,89.00
2022-11-21T09:11:47.968Z,89.11
2022-11-21T09:12:47.962Z,88.39
2022-11-21T09:13:47.968Z,88.24
2022-11-21T09:14:47.938Z,88.28
2022-11-21T09:15:48.041Z,88.45
2022-11-21T09:16:48.929Z,88.65
2022-11-21T09:17:48.002Z,88.45
2022-11-21T09:18:48.915Z,88.34
2022-11-21T09:19:47.878Z,88.45
2022-11-21T09:20:47.960Z,87.99
2022-11-21T09:21:47.876Z,87.99
2022-11-21T09:22:47.847Z,88.09
2022-11-21T09:23:47.859Z,88.09
2022-11-21T09:24:47.829Z,87.88
2022-11-21T09:25:47.846Z,87.88
2022-11-21T09:26:47.825Z,88.20
2022-11-21T09:27:47.830Z,87.37
2022-11-21T09:28:47.796Z,86.85
2022-11-21T09:29:53.671Z,86.75
2022-11-21T09:30:47.799Z,86.65
2022-11-21T09:31:47.760Z,86.71
2022-11-21T09:32:47.751Z,86.40
2022-11-21T09:33:49.726Z,86.44
2022-11-21T09:34:49.732Z,86.75
2022-11-21T09:35:48.047Z,86.96
2022-11-21T09:36:48.719Z,87.06
2022-11-21T09:37:47.731Z,86.85
2022-11-21T09:38:47.719Z,87.57
2022-11-21T09:39:48.943Z,87.88
2022-11-21T09:40:47.712Z,87.99
2022-11-21T09:41:47.686Z,87.41
2022-11-21T09:42:47.691Z,87.51
2022-11-21T09:43:51.752Z,86.79
2022-11-21T09:44:48.652Z,87.30
2022-11-21T09:45:47.670Z,87.93
2022-11-21T09:46:47.702Z,87.93
2022-11-21T09:47:47.637Z,88.13
2022-11-21T09:48:47.651Z,87.68
2022-11-21T09:49:47.587Z,86.96
2022-11-21T09:50:53.409Z,87.78
2022-11-21T09:51:49.625Z,87.99
2022-11-21T09:52:47.579Z,87.78
2022-11-21T09:53:47.596Z,87.99
2022-11-21T09:54:48.136Z,87.78
2022-11-21T09:55:47.566Z,87.99
2022-11-21T09:56:47.516Z,87.82
2022-11-21T09:57:47.520Z,88.40
2022-11-21T09:58:47.552Z,87.88
2022-11-21T09:59:47.535Z,87.99
2022-11-21T10:00:47.570Z,87.88
2022-11-21T10:01:47.469Z,87.43
2022-11-21T10:02:47.465Z,87.06
2022-11-21T10:03:47.652Z,86.71
2022-11-21T10:04:47.460Z,86.33
2022-11-21T10:05:47.461Z,86.44
2022-11-21T10:06:47.442Z,86.65
2022-11-21T10:07:47.518Z,86.85
2022-11-21T10:08:48.064Z,86.96
2022-11-21T10:09:48.222Z,86.91
2022-11-21T10:10:47.429Z,86.40
2022-11-21T10:11:48.073Z,85.92
2022-11-21T10:12:47.368Z,86.13
2022-11-21T10:13:47.434Z,85.47
2022-11-21T10:14:48.106Z,84.88
2022-11-21T10:15:47.333Z,84.99
2022-11-21T10:16:47.353Z,85.61
2022-11-21T10:17:48.145Z,87.06
2022-11-21T10:18:47.335Z,86.71
2022-11-21T10:19:47.333Z,86.50
2022-11-21T10:20:48.273Z,86.91
2022-11-21T10:21:47.297Z,86.44
2022-11-21T10:22:47.326Z,86.40
2022-11-21T10:23:47.270Z,87.43
2022-11-21T10:24:47.252Z,88.06
2022-11-21T10:25:47.317Z,87.95
2022-11-21T10:26:47.246Z,87.64
2022-11-21T10:27:47.279Z,87.54
2022-11-21T10:28:47.237Z,86.96
2022-11-21T10:29:47.211Z,86.65
2022-11-21T10:30:47.201Z,87.99
2022-11-21T10:31:47.193Z,87.72
2022-11-21T10:32:47.231Z,87.57
2022-11-21T10:33:47.229Z,87.99
2022-11-21T10:34:47.173Z,88.61
2022-11-21T10:35:47.169Z,88.16
2022-11-21T10:36:47.140Z,88.67
2022-11-21T10:37:47.149Z,87.74
2022-11-21T10:38:47.162Z,86.29
2022-11-21T10:39:47.136Z,86.81
2022-11-21T10:40:47.141Z,88.30
2022-11-21T10:41:47.099Z,86.75
2022-11-21T10:42:47.072Z,86.85
2022-11-21T10:43:47.067Z,87.02
2022-11-21T10:44:47.113Z,87.06
2022-11-21T10:45:47.033Z,86.89
2022-11-21T10:46:47.036Z,87.37
2022-11-21T10:47:47.078Z,87.93
2022-11-21T10:48:47.044Z,88.03
2022-11-21T10:49:47.033Z,87.06
2022-11-21T10:50:47.007Z,86.96
2022-11-21T10:51:47.174Z,86.96
2022-11-21T10:52:48.097Z,86.81
2022-11-21T10:53:47.117Z,86.50
2022-11-21T10:54:47.962Z,86.21
2022-11-21T10:55:47.093Z,84.81
2022-11-21T10:56:47.938Z,83.94
2022-11-21T10:57:46.954Z,85.08
2022-11-21T10:58:48.144Z,84.66
2022-11-21T10:59:47.121Z,84.97
2022-11-21T11:00:47.933Z,83.53
2022-11-21T11:01:48.086Z,83.49
2022-11-21T11:02:47.111Z,83.59
2022-11-21T11:04:07.097Z,83.07
2022-11-21T11:04:52.321Z,83.59
2022-11-21T11:05:47.867Z,83.49
2022-11-21T11:06:46.833Z,83.55
2022-11-21T11:07:46.935Z,84.38
2022-11-21T11:08:46.802Z,83.97
2022-11-21T11:09:46.824Z,85.10
2022-11-21T11:10:46.813Z,84.69
2022-11-21T11:11:48.177Z,83.86
2022-11-21T11:12:46.829Z,83.34
2022-11-21T11:13:47.811Z,83.65
2022-11-21T11:14:47.747Z,83.55
2022-11-21T11:15:46.786Z,83.34
2022-11-21T11:16:46.771Z,83.31
2022-11-21T11:17:48.025Z,83.31
2022-11-21T11:18:47.152Z,83.93
2022-11-21T11:19:48.485Z,83.97
2022-11-21T11:20:46.754Z,83.86
2022-11-21T11:21:46.753Z,83.90
2022-11-21T11:22:48.030Z,83.80
2022-11-21T11:23:47.025Z,84.97
2022-11-21T11:24:46.894Z,84.87
2022-11-21T11:25:47.822Z,85.91
2022-11-21T11:26:48.117Z,85.91
2022-11-21T11:27:46.649Z,86.67
2022-11-21T11:28:47.832Z,86.52
2022-11-21T11:29:46.688Z,86.11
2022-11-21T11:30:46.615Z,86.52
2022-11-21T11:31:46.586Z,86.83
2022-11-21T11:32:46.593Z,86.21
2022-11-21T11:33:46.989Z,85.80
2022-11-21T11:34:47.079Z,86.42
2022-11-21T11:35:47.129Z,86.52
2022-11-21T11:36:47.171Z,86.67
2022-11-21T11:37:47.089Z,86.83
2022-11-21T11:38:47.138Z,87.39
2022-11-21T11:39:46.542Z,87.35
2022-11-21T11:40:46.543Z,87.46
2022-11-21T11:41:47.232Z,87.39
2022-11-21T11:42:47.205Z,87.60
2022-11-21T11:43:47.130Z,87.70
2022-11-21T11:44:47.110Z,87.81
2022-11-21T11:45:47.045Z,87.49
2022-11-21T11:46:47.058Z,88.43
2022-11-21T11:47:50.451Z,88.12
2022-11-21T11:49:16.693Z,87.39
2022-11-21T11:49:47.977Z,87.91
2022-11-21T11:50:46.449Z,88.06
2022-11-21T11:51:47.020Z,88.12
2022-11-21T11:52:47.030Z,88.64
2022-11-21T11:53:47.145Z,88.36
2022-11-21T11:54:47.049Z,88.16
2022-11-21T11:55:46.992Z,88.22
2022-11-21T11:56:47.265Z,88.43
2022-11-21T11:57:47.002Z,88.43
2022-11-21T11:58:46.322Z,88.32
2022-11-21T11:59:47.351Z,88.22
2022-11-21T12:00:46.352Z,88.12
2022-11-21T12:01:46.438Z,88.32
2022-11-21T12:02:47.088Z,87.91
2022-11-21T12:03:47.144Z,87.70
2022-11-21T12:04:47.130Z,88.22
2022-11-21T12:05:46.952Z,88.32
2022-11-21T12:07:52.784Z,88.64
2022-11-21T12:08:39.564Z,88.32
2022-11-21T12:08:48.295Z,88.22
2022-11-21T12:09:47.220Z,88.39
2022-11-21T12:10:46.240Z,88.01
2022-11-21T12:11:46.965Z,88.18
2022-11-21T12:12:46.198Z,88.59
2022-11-21T12:13:46.227Z,88.22
2022-11-21T12:14:47.077Z,88.18
2022-11-21T12:15:47.295Z,88.70
2022-11-21T12:16:47.164Z,87.76
2022-11-21T12:17:47.170Z,87.66
2022-11-21T12:18:47.232Z,88.18
2022-11-21T12:19:47.179Z,88.07
2022-11-21T12:20:47.156Z,87.87
2022-11-21T12:21:46.189Z,88.24
2022-11-21T12:22:47.219Z,87.97
2022-11-21T12:23:47.375Z,87.87
2022-11-21T12:24:48.084Z,87.76
2022-11-21T12:25:47.391Z,88.28
2022-11-21T12:26:47.167Z,87.73
2022-11-21T12:27:47.104Z,87.46
2022-11-21T12:28:47.081Z,87.97
2022-11-21T12:29:47.157Z,87.83
2022-11-21T12:30:46.039Z,88.24
2022-11-21T12:31:47.163Z,87.83
2022-11-21T12:32:47.082Z,87.52
2022-11-21T12:33:46.987Z,87.48
2022-11-21T12:34:47.117Z,87.58
2022-11-21T12:35:47.157Z,87.58
2022-11-21T12:36:47.101Z,86.38
2022-11-21T12:37:47.171Z,88.14
2022-11-21T12:38:47.007Z,88.04
2022-11-21T12:39:45.957Z,88.07
2022-11-21T12:40:45.947Z,87.66
2022-11-21T12:41:46.060Z,87.93
2022-11-21T12:42:47.198Z,87.93
2022-11-21T12:43:47.095Z,87.62
2022-11-21T12:44:47.122Z,87.73
2022-11-21T12:45:47.187Z,86.24
2022-11-21T12:46:47.093Z,86.86
2022-11-21T12:47:46.927Z,86.34
2022-11-21T12:48:47.118Z,86.71
2022-11-21T12:49:50.521Z,86.61
2022-11-21T12:50:47.861Z,86.78
2022-11-21T12:51:46.071Z,87.19
2022-11-21T12:52:47.006Z,86.63